Napa — WDE8110 — position and weather

sailwx.info

Track history (hours):
 
Tides and Currents Weather Stations Pressure Air Temp Water Temp Dewpoint Dewpoint Depression Visibility Wind Speed Wind Dir Waves Ship Positions

Napa

Owner: Golden Gate Bridge Hwy. and Transportation District, San Francisco, CA. More information available from US FCC via Universal Licensing System and Coast Guard Vessel Documentation Center.

Last reported at 2018-Jun-24 20:30 UTC. Time now 2018-Jun-24 20:37 UTC.
Position N 37°48' W 122°24'.

Length 38 m; draft 0.15 m.

Type: Passenger vessel. MMSI: 36677150.

Date/timePositionNaut miles runAvg speedWind from/ knotsBaromVisibWave heightAir tempDewpointWater temp
2018-Jun-24 20:30N 37°48' W 122°24'0 0.0
2018-Jun-24 20:00N 37°48' W 122°24'1019.2
2018-Jun-24 19:29N 37°56' W 122°30'715.5
2018-Jun-24 19:01N 37°51' W 122°24'3 5.9
2018-Jun-24 18:30N 37°48' W 122°24'0 0.0
2018-Jun-24 18:00N 37°48' W 122°24'0 0.0
2018-Jun-24 17:30N 37°48' W 122°24'1020.1
2018-Jun-24 17:00N 37°57' W 122°30'0 0.8
2018-Jun-24 16:30N 37°56' W 122°30'1020.1
2018-Jun-24 16:00N 37°48' W 122°24'816.8
2018-Jun-24 15:31N 37°55' W 122°28'2 0.2
2018-Jun-24 03:59N 37°57' W 122°30'0 0.3
2018-Jun-24 03:30N 37°57' W 122°30'1 2.0
2018-Jun-24 03:01N 37°56' W 122°29'918.8
2018-Jun-24 02:30N 37°48' W 122°24'510.8
2018-Jun-24 02:00N 37°51' W 122°29'0 0.5
2018-Jun-24 01:30N 37°51' W 122°28'510.6
2018-Jun-24 01:01N 37°48' W 122°24'0 0.0
2018-Jun-24 00:30N 37°48' W 122°24'0 0.0
2018-Jun-24 00:01N 37°48' W 122°24'0 0.9
2018-Jun-23 23:31N 37°48' W 122°23'510.6
2018-Jun-23 23:00N 37°51' W 122°29'1 2.1
2018-Jun-23 22:31N 37°51' W 122°27'4 9.0
2018-Jun-23 22:01N 37°48' W 122°23'510.8
2018-Jun-23 21:30N 37°51' W 122°29'5 9.7
2018-Jun-23 21:00N 37°56' W 122°30'1 0.1
2018-Jun-23 05:02N 37°57' W 122°30'0 6.1
2018-Jun-23 05:00N 37°57' W 122°30'1020.6
2018-Jun-23 04:31N 37°48' W 122°24'918.2
2018-Jun-23 04:01N 37°56' W 122°29'3 5.6
2018-Jun-23 03:31N 37°54' W 122°26'612.7
2018-Jun-23 03:00N 37°48' W 122°23'1020.3
2018-Jun-23 02:30N 37°57' W 122°30'0 0.3
2018-Jun-23 01:59N 37°57' W 122°30'1021.7
2018-Jun-23 01:30N 37°48' W 122°24'612.6
2018-Jun-23 01:00N 37°54' W 122°26'4 8.9
2018-Jun-23 00:31N 37°57' W 122°30'1020.7
2018-Jun-23 00:00N 37°48' W 122°24'510.3
2018-Jun-22 23:31N 37°53' W 122°25'611.3
2018-Jun-22 23:00N 37°57' W 122°30'1020.5
2018-Jun-22 22:30N 37°48' W 122°24'1019.8
2018-Jun-22 22:00N 37°56' W 122°30'1 1.4
2018-Jun-22 21:30N 37°57' W 122°30'0 0.0
2018-Jun-22 20:59N 37°57' W 122°30'1021.1
2018-Jun-22 20:30N 37°48' W 122°23'4 7.4
2018-Jun-22 20:00N 37°52' W 122°25'713.1
2018-Jun-22 19:30N 37°57' W 122°30'1020.3
2018-Jun-22 19:00N 37°49' W 122°23'4 8.8
2018-Jun-22 18:31N 37°53' W 122°25'611.3
2018-Jun-22 18:00N 37°57' W 122°30'3 5.4
2018-Jun-22 17:30N 37°55' W 122°28'816.5
2018-Jun-22 17:00N 37°48' W 122°24'918.7
2018-Jun-22 16:30N 37°56' W 122°29'1 2.6
2018-Jun-22 16:00N 37°57' W 122°30'1020.9
2018-Jun-22 15:30N 37°48' W 122°24'918.3
2018-Jun-22 15:01N 37°56' W 122°29'1 3.0
2018-Jun-22 14:30N 37°55' W 122°27'714.5
2018-Jun-22 14:01N 37°49' W 122°23'1014.8
2018-Jun-22 13:21N 37°57' W 122°30'0 0.0
2018-Jun-22 05:01N 37°57' W 122°30'0 9.9
2018-Jun-22 05:00N 37°57' W 122°30'1020.6
2018-Jun-22 04:30N 37°48' W 122°24'1019.0
2018-Jun-22 04:00N 37°56' W 122°29'0 0.4
2018-Jun-22 03:30N 37°56' W 122°29'918.8
2018-Jun-22 03:00N 37°48' W 122°24'1020.1
2018-Jun-22 02:30N 37°57' W 122°30'0 0.5
2018-Jun-22 01:59N 37°57' W 122°30'1021.9
2018-Jun-22 01:30N 37°48' W 122°24'510.3
2018-Jun-22 01:00N 37°53' W 122°26'611.0
2018-Jun-22 00:30N 37°57' W 122°30'1021.0
2018-Jun-22 00:00N 37°48' W 122°24'4 7.9
2018-Jun-21 23:30N 37°52' W 122°25'713.7
2018-Jun-21 23:00N 37°57' W 122°30'1020.9
2018-Jun-21 22:30N 37°48' W 122°24'1019.8
2018-Jun-21 22:00N 37°56' W 122°30'0 0.8
2018-Jun-21 21:30N 37°57' W 122°31'0 0.0
2018-Jun-21 21:00N 37°57' W 122°31'1020.5
2018-Jun-21 20:31N 37°48' W 122°23'3 6.3
2018-Jun-21 20:01N 37°51' W 122°25'714.1
2018-Jun-21 19:30N 37°57' W 122°30'1020.8
2018-Jun-21 19:01N 37°48' W 122°23'5 9.4
2018-Jun-21 18:30N 37°53' W 122°25'611.3
2018-Jun-21 18:00N 37°57' W 122°30'510.3
2018-Jun-21 17:31N 37°53' W 122°26'611.7
2018-Jun-21 17:00N 37°48' W 122°24'1019.0
2018-Jun-21 16:30N 37°56' W 122°30'0 0.2
2018-Jun-21 15:59N 37°56' W 122°30'1020.8
2018-Jun-21 15:30N 37°48' W 122°24'1019.1
2018-Jun-21 15:00N 37°56' W 122°29'3 5.6
2018-Jun-21 14:30N 37°55' W 122°27'510.8
2018-Jun-21 14:01N 37°50' W 122°24'914.6
2018-Jun-21 13:24N 37°57' W 122°30'0 0.0
2018-Jun-21 13:00N 37°57' W 122°30'0 0.0
2018-Jun-21 12:27N 37°57' W 122°30'0 0.0
2018-Jun-21 11:57N 37°57' W 122°30'0 0.0
2018-Jun-21 11:29N 37°57' W 122°30'0 0.0
2018-Jun-21 10:58N 37°57' W 122°30'0 0.0
2018-Jun-21 10:29N 37°57' W 122°30'0 0.0
2018-Jun-21 09:59N 37°57' W 122°30'0 0.0
2018-Jun-21 09:30N 37°57' W 122°30'0 0.0
2018-Jun-21 09:00N 37°57' W 122°30'0 0.0
2018-Jun-21 08:30N 37°57' W 122°30'0 0.0
2018-Jun-21 08:00N 37°57' W 122°30'0 0.0
2018-Jun-21 07:30N 37°57' W 122°30'0 0.0
2018-Jun-21 06:14N 37°57' W 122°30'0 0.0
2018-Jun-21 06:00N 37°57' W 122°30'0 0.0
2018-Jun-21 05:29N 37°57' W 122°30'0 0.7
2018-Jun-21 05:00N 37°56' W 122°30'1020.5
2018-Jun-21 04:30N 37°48' W 122°24'817.1
2018-Jun-21 04:00N 37°55' W 122°28'1 2.1
2018-Jun-21 03:30N 37°56' W 122°29'918.5
2018-Jun-21 03:00N 37°48' W 122°24'1020.7
2018-Jun-21 02:30N 37°57' W 122°30'0 0.0
2018-Jun-21 01:58N 37°57' W 122°30'1022.0
2018-Jun-21 01:30N 37°48' W 122°24'4 8.2
2018-Jun-21 01:00N 37°52' W 122°25'611.5
2018-Jun-21 00:28N 37°56' W 122°30'1021.9
2018-Jun-21 00:00N 37°48' W 122°24'5 9.8
2018-Jun-20 23:30N 37°52' W 122°25'611.6
2018-Jun-20 23:00N 37°57' W 122°30'1020.4
2018-Jun-20 22:29N 37°48' W 122°24'1019.6
2018-Jun-20 21:58N 37°56' W 122°30'0 0.9
2018-Jun-20 21:30N 37°57' W 122°30'0 0.0
2018-Jun-20 21:00N 37°57' W 122°30'1020.6
2018-Jun-20 20:31N 37°49' W 122°23'4 8.4
2018-Jun-20 20:00N 37°52' W 122°25'612.1
2018-Jun-20 19:30N 37°57' W 122°30'1019.2
2018-Jun-20 19:00N 37°49' W 122°23'4 8.4
2018-Jun-20 18:31N 37°53' W 122°26'510.7
2018-Jun-20 18:00N 37°57' W 122°30'2 4.8
2018-Jun-20 17:30N 37°56' W 122°28'917.0
2018-Jun-20 17:00N 37°48' W 122°24'1018.5
2018-Jun-20 16:29N 37°56' W 122°30'0 0.3
2018-Jun-20 16:00N 37°56' W 122°30'1019.8
2018-Jun-20 15:30N 37°48' W 122°24'1018.4
2018-Jun-20 14:58N 37°56' W 122°30'4 8.3
2018-Jun-20 14:30N 37°54' W 122°26'611.6
2018-Jun-20 14:00N 37°49' W 122°23'1019.3
2018-Jun-20 13:30N 37°57' W 122°30'1 0.1
2018-Jun-20 04:58N 37°56' W 122°30'1021.3
2018-Jun-20 04:30N 37°48' W 122°24'1017.9
2018-Jun-20 03:55N 37°57' W 122°30'614.5
2018-Jun-20 03:30N 37°52' W 122°25'4 9.0
2018-Jun-20 03:00N 37°48' W 122°23'1019.3
2018-Jun-20 02:29N 37°56' W 122°30'0 0.7
2018-Jun-20 02:00N 37°57' W 122°30'1020.5
2018-Jun-20 01:30N 37°48' W 122°24'5 9.6
2018-Jun-20 01:00N 37°52' W 122°25'612.1
2018-Jun-20 00:30N 37°57' W 122°30'1020.8
2018-Jun-20 00:00N 37°48' W 122°24'4 8.9
2018-Jun-19 23:30N 37°52' W 122°25'612.4
2018-Jun-19 23:00N 37°57' W 122°30'1021.0
2018-Jun-19 22:30N 37°48' W 122°24'1019.5
2018-Jun-19 22:00N 37°56' W 122°30'1 1.2
2018-Jun-19 21:30N 37°57' W 122°30'0 0.0
2018-Jun-19 21:01N 37°57' W 122°30'1019.2
2018-Jun-19 20:31N 37°49' W 122°23'2 4.7
2018-Jun-19 20:01N 37°51' W 122°24'713.8
2018-Jun-19 19:29N 37°57' W 122°30'1021.3
2018-Jun-19 19:01N 37°49' W 122°23'4 8.1
2018-Jun-19 18:31N 37°52' W 122°25'611.7
2018-Jun-19 17:59N 37°57' W 122°30'3 6.5
2018-Jun-19 17:30N 37°55' W 122°27'815.5
2018-Jun-19 17:00N 37°48' W 122°24'1017.7
2018-Jun-19 16:25N 37°57' W 122°30'1 1.9
2018-Jun-19 15:57N 37°56' W 122°29'1021.3
2018-Jun-19 15:30N 37°48' W 122°24'1018.9
2018-Jun-19 14:58N 37°56' W 122°30'4 9.1
2018-Jun-19 14:30N 37°53' W 122°26'510.2
2018-Jun-19 14:00N 37°49' W 122°24'918.8
2018-Jun-19 13:30N 37°57' W 122°30'0 0.0
2018-Jun-19 05:07N 37°57' W 122°30'1 8.7
2018-Jun-19 05:00N 37°56' W 122°29'1019.2
2018-Jun-19 04:30N 37°48' W 122°24'1017.3
2018-Jun-19 03:55N 37°57' W 122°30'1 2.0
2018-Jun-19 03:30N 37°56' W 122°29'1019.2
2018-Jun-19 03:00N 37°48' W 122°24'1020.2
2018-Jun-19 02:30N 37°57' W 122°30'0 0.6
2018-Jun-19 02:00N 37°57' W 122°30'1021.1
2018-Jun-19 01:30N 37°48' W 122°24'611.4
2018-Jun-19 01:00N 37°53' W 122°26'510.1
2018-Jun-19 00:30N 37°57' W 122°30'1020.8
2018-Jun-19 00:00N 37°48' W 122°24'4 8.8
2018-Jun-18 23:31N 37°52' W 122°25'612.8
2018-Jun-18 23:00N 37°57' W 122°30'1020.3
2018-Jun-18 22:29N 37°48' W 122°24'1019.2
2018-Jun-18 21:58N 37°57' W 122°30'0 0.6
2018-Jun-18 21:30N 37°57' W 122°30'0 0.0
2018-Jun-18 21:00N 37°57' W 122°30'1019.8
2018-Jun-18 20:30N 37°49' W 122°23'4 7.0
2018-Jun-18 20:00N 37°52' W 122°25'612.5
2018-Jun-18 19:30N 37°57' W 122°30'1019.7
2018-Jun-18 19:01N 37°49' W 122°23'3 6.9
2018-Jun-18 18:31N 37°52' W 122°25'612.5
2018-Jun-18 18:00N 37°57' W 122°30'612.3
2018-Jun-18 17:31N 37°53' W 122°25'5 9.7
2018-Jun-18 17:01N 37°48' W 122°24'1018.3
2018-Jun-18 16:29N 37°56' W 122°30'0 0.2
2018-Jun-18 16:00N 37°56' W 122°30'1019.7
2018-Jun-18 15:30N 37°48' W 122°24'1018.5
2018-Jun-18 14:57N 37°57' W 122°30'4 9.8
2018-Jun-18 14:30N 37°54' W 122°26'5 9.3
2018-Jun-18 14:01N 37°49' W 122°24'917.7
2018-Jun-18 13:30N 37°57' W 122°30'  
2018-Jun-16 01:01N 37°57' W 122°30'0 0.0
2018-Jun-16 01:00N 37°57' W 122°30'1020.9
2018-Jun-16 00:30N 37°48' W 122°24'1 1.2
2018-Jun-16 00:01N 37°48' W 122°23'1017.1
2018-Jun-15 23:26N 37°56' W 122°30'1023.4
2018-Jun-15 23:00N 37°48' W 122°24'1018.4
2018-Jun-15 22:28N 37°56' W 122°30'1 1.3
2018-Jun-15 21:54N 37°57' W 122°31'0 0.0
2018-Jun-15 01:36N 37°57' W 122°31'0 0.0
2018-Jun-15 01:30N 37°57' W 122°31'0 0.3
2018-Jun-15 01:00N 37°57' W 122°30'1021.1
2018-Jun-15 00:30N 37°48' W 122°24'1 1.2
2018-Jun-15 00:01N 37°48' W 122°23'1019.6
2018-Jun-14 23:29N 37°57' W 122°30'1021.8
2018-Jun-14 23:01N 37°48' W 122°24'510.8
2018-Jun-14 22:31N 37°53' W 122°25'611.0
2018-Jun-14 22:00N 37°57' W 122°31'  
Track history (hours):
 
Tides and Currents Weather Stations Pressure Air Temp Water Temp Dewpoint Dewpoint Depression Visibility Wind Speed Wind Dir Waves Ship Positions

Napa

Owner: Golden Gate Bridge Hwy. and Transportation District, San Francisco, CA. More information available from US FCC via Universal Licensing System and Coast Guard Vessel Documentation Center.

Last reported at 2018-Jun-24 20:30 UTC. Time now 2018-Jun-24 20:37 UTC.
Position N 37°48' W 122°24'.

Length 38 m; draft 0.15 m.

Type: Passenger vessel. MMSI: 36677150.

Date/timePositionNaut miles runAvg speedWind from/ knotsBaromVisibWave heightAir tempDewpointWater temp
2018-Jun-24 20:30N 37°48' W 122°24'0 0.0
2018-Jun-24 20:00N 37°48' W 122°24'1019.2
2018-Jun-24 19:29N 37°56' W 122°30'715.5
2018-Jun-24 19:01N 37°51' W 122°24'3 5.9
2018-Jun-24 18:30N 37°48' W 122°24'0 0.0
2018-Jun-24 18:00N 37°48' W 122°24'0 0.0
2018-Jun-24 17:30N 37°48' W 122°24'1020.1
2018-Jun-24 17:00N 37°57' W 122°30'0 0.8
2018-Jun-24 16:30N 37°56' W 122°30'1020.1
2018-Jun-24 16:00N 37°48' W 122°24'816.8
2018-Jun-24 15:31N 37°55' W 122°28'2 0.2
2018-Jun-24 03:59N 37°57' W 122°30'0 0.3
2018-Jun-24 03:30N 37°57' W 122°30'1 2.0
2018-Jun-24 03:01N 37°56' W 122°29'918.8
2018-Jun-24 02:30N 37°48' W 122°24'510.8
2018-Jun-24 02:00N 37°51' W 122°29'0 0.5
2018-Jun-24 01:30N 37°51' W 122°28'510.6
2018-Jun-24 01:01N 37°48' W 122°24'0 0.0
2018-Jun-24 00:30N 37°48' W 122°24'0 0.0
2018-Jun-24 00:01N 37°48' W 122°24'0 0.9
2018-Jun-23 23:31N 37°48' W 122°23'510.6
2018-Jun-23 23:00N 37°51' W 122°29'1 2.1
2018-Jun-23 22:31N 37°51' W 122°27'4 9.0
2018-Jun-23 22:01N 37°48' W 122°23'510.8
2018-Jun-23 21:30N 37°51' W 122°29'5 9.7
2018-Jun-23 21:00N 37°56' W 122°30'1 0.1
2018-Jun-23 05:02N 37°57' W 122°30'0 6.1
2018-Jun-23 05:00N 37°57' W 122°30'1020.6
2018-Jun-23 04:31N 37°48' W 122°24'918.2
2018-Jun-23 04:01N 37°56' W 122°29'3 5.6
2018-Jun-23 03:31N 37°54' W 122°26'612.7
2018-Jun-23 03:00N 37°48' W 122°23'1020.3
2018-Jun-23 02:30N 37°57' W 122°30'0 0.3
2018-Jun-23 01:59N 37°57' W 122°30'1021.7
2018-Jun-23 01:30N 37°48' W 122°24'612.6
2018-Jun-23 01:00N 37°54' W 122°26'4 8.9
2018-Jun-23 00:31N 37°57' W 122°30'1020.7
2018-Jun-23 00:00N 37°48' W 122°24'510.3
2018-Jun-22 23:31N 37°53' W 122°25'611.3
2018-Jun-22 23:00N 37°57' W 122°30'1020.5
2018-Jun-22 22:30N 37°48' W 122°24'1019.8
2018-Jun-22 22:00N 37°56' W 122°30'1 1.4
2018-Jun-22 21:30N 37°57' W 122°30'0 0.0
2018-Jun-22 20:59N 37°57' W 122°30'1021.1
2018-Jun-22 20:30N 37°48' W 122°23'4 7.4
2018-Jun-22 20:00N 37°52' W 122°25'713.1
2018-Jun-22 19:30N 37°57' W 122°30'1020.3
2018-Jun-22 19:00N 37°49' W 122°23'4 8.8
2018-Jun-22 18:31N 37°53' W 122°25'611.3
2018-Jun-22 18:00N 37°57' W 122°30'3 5.4
2018-Jun-22 17:30N 37°55' W 122°28'816.5
2018-Jun-22 17:00N 37°48' W 122°24'918.7
2018-Jun-22 16:30N 37°56' W 122°29'1 2.6
2018-Jun-22 16:00N 37°57' W 122°30'1020.9
2018-Jun-22 15:30N 37°48' W 122°24'918.3
2018-Jun-22 15:01N 37°56' W 122°29'1 3.0
2018-Jun-22 14:30N 37°55' W 122°27'714.5
2018-Jun-22 14:01N 37°49' W 122°23'1014.8
2018-Jun-22 13:21N 37°57' W 122°30'0 0.0
2018-Jun-22 05:01N 37°57' W 122°30'0 9.9
2018-Jun-22 05:00N 37°57' W 122°30'1020.6
2018-Jun-22 04:30N 37°48' W 122°24'1019.0
2018-Jun-22 04:00N 37°56' W 122°29'0 0.4
2018-Jun-22 03:30N 37°56' W 122°29'918.8
2018-Jun-22 03:00N 37°48' W 122°24'1020.1
2018-Jun-22 02:30N 37°57' W 122°30'0 0.5
2018-Jun-22 01:59N 37°57' W 122°30'1021.9
2018-Jun-22 01:30N 37°48' W 122°24'510.3
2018-Jun-22 01:00N 37°53' W 122°26'611.0
2018-Jun-22 00:30N 37°57' W 122°30'1021.0
2018-Jun-22 00:00N 37°48' W 122°24'4 7.9
2018-Jun-21 23:30N 37°52' W 122°25'713.7
2018-Jun-21 23:00N 37°57' W 122°30'1020.9
2018-Jun-21 22:30N 37°48' W 122°24'1019.8
2018-Jun-21 22:00N 37°56' W 122°30'0 0.8
2018-Jun-21 21:30N 37°57' W 122°31'0 0.0
2018-Jun-21 21:00N 37°57' W 122°31'1020.5
2018-Jun-21 20:31N 37°48' W 122°23'3 6.3
2018-Jun-21 20:01N 37°51' W 122°25'714.1
2018-Jun-21 19:30N 37°57' W 122°30'1020.8
2018-Jun-21 19:01N 37°48' W 122°23'5 9.4
2018-Jun-21 18:30N 37°53' W 122°25'611.3
2018-Jun-21 18:00N 37°57' W 122°30'510.3
2018-Jun-21 17:31N 37°53' W 122°26'611.7
2018-Jun-21 17:00N 37°48' W 122°24'1019.0
2018-Jun-21 16:30N 37°56' W 122°30'0 0.2
2018-Jun-21 15:59N 37°56' W 122°30'1020.8
2018-Jun-21 15:30N 37°48' W 122°24'1019.1
2018-Jun-21 15:00N 37°56' W 122°29'3 5.6
2018-Jun-21 14:30N 37°55' W 122°27'510.8
2018-Jun-21 14:01N 37°50' W 122°24'914.6
2018-Jun-21 13:24N 37°57' W 122°30'0 0.0
2018-Jun-21 13:00N 37°57' W 122°30'0 0.0
2018-Jun-21 12:27N 37°57' W 122°30'0 0.0
2018-Jun-21 11:57N 37°57' W 122°30'0 0.0
2018-Jun-21 11:29N 37°57' W 122°30'0 0.0
2018-Jun-21 10:58N 37°57' W 122°30'0 0.0
2018-Jun-21 10:29N 37°57' W 122°30'0 0.0
2018-Jun-21 09:59N 37°57' W 122°30'0 0.0
2018-Jun-21 09:30N 37°57' W 122°30'0 0.0
2018-Jun-21 09:00N 37°57' W 122°30'0 0.0
2018-Jun-21 08:30N 37°57' W 122°30'0 0.0
2018-Jun-21 08:00N 37°57' W 122°30'0 0.0
2018-Jun-21 07:30N 37°57' W 122°30'0 0.0
2018-Jun-21 06:14N 37°57' W 122°30'0 0.0
2018-Jun-21 06:00N 37°57' W 122°30'0 0.0
2018-Jun-21 05:29N 37°57' W 122°30'0 0.7
2018-Jun-21 05:00N 37°56' W 122°30'1020.5
2018-Jun-21 04:30N 37°48' W 122°24'817.1
2018-Jun-21 04:00N 37°55' W 122°28'1 2.1
2018-Jun-21 03:30N 37°56' W 122°29'918.5
2018-Jun-21 03:00N 37°48' W 122°24'1020.7
2018-Jun-21 02:30N 37°57' W 122°30'0 0.0
2018-Jun-21 01:58N 37°57' W 122°30'1022.0
2018-Jun-21 01:30N 37°48' W 122°24'4 8.2
2018-Jun-21 01:00N 37°52' W 122°25'611.5
2018-Jun-21 00:28N 37°56' W 122°30'1021.9
2018-Jun-21 00:00N 37°48' W 122°24'5 9.8
2018-Jun-20 23:30N 37°52' W 122°25'611.6
2018-Jun-20 23:00N 37°57' W 122°30'1020.4
2018-Jun-20 22:29N 37°48' W 122°24'1019.6
2018-Jun-20 21:58N 37°56' W 122°30'0 0.9
2018-Jun-20 21:30N 37°57' W 122°30'0 0.0
2018-Jun-20 21:00N 37°57' W 122°30'1020.6
2018-Jun-20 20:31N 37°49' W 122°23'4 8.4
2018-Jun-20 20:00N 37°52' W 122°25'612.1
2018-Jun-20 19:30N 37°57' W 122°30'1019.2
2018-Jun-20 19:00N 37°49' W 122°23'4 8.4
2018-Jun-20 18:31N 37°53' W 122°26'510.7
2018-Jun-20 18:00N 37°57' W 122°30'2 4.8
2018-Jun-20 17:30N 37°56' W 122°28'917.0
2018-Jun-20 17:00N 37°48' W 122°24'1018.5
2018-Jun-20 16:29N 37°56' W 122°30'0 0.3
2018-Jun-20 16:00N 37°56' W 122°30'1019.8
2018-Jun-20 15:30N 37°48' W 122°24'1018.4
2018-Jun-20 14:58N 37°56' W 122°30'4 8.3
2018-Jun-20 14:30N 37°54' W 122°26'611.6
2018-Jun-20 14:00N 37°49' W 122°23'1019.3
2018-Jun-20 13:30N 37°57' W 122°30'1 0.1
2018-Jun-20 04:58N 37°56' W 122°30'1021.3
2018-Jun-20 04:30N 37°48' W 122°24'1017.9
2018-Jun-20 03:55N 37°57' W 122°30'614.5
2018-Jun-20 03:30N 37°52' W 122°25'4 9.0
2018-Jun-20 03:00N 37°48' W 122°23'1019.3
2018-Jun-20 02:29N 37°56' W 122°30'0 0.7
2018-Jun-20 02:00N 37°57' W 122°30'1020.5
2018-Jun-20 01:30N 37°48' W 122°24'5 9.6
2018-Jun-20 01:00N 37°52' W 122°25'612.1
2018-Jun-20 00:30N 37°57' W 122°30'1020.8
2018-Jun-20 00:00N 37°48' W 122°24'4 8.9
2018-Jun-19 23:30N 37°52' W 122°25'612.4
2018-Jun-19 23:00N 37°57' W 122°30'1021.0
2018-Jun-19 22:30N 37°48' W 122°24'1019.5
2018-Jun-19 22:00N 37°56' W 122°30'1 1.2
2018-Jun-19 21:30N 37°57' W 122°30'0 0.0
2018-Jun-19 21:01N 37°57' W 122°30'1019.2
2018-Jun-19 20:31N 37°49' W 122°23'2 4.7
2018-Jun-19 20:01N 37°51' W 122°24'713.8
2018-Jun-19 19:29N 37°57' W 122°30'1021.3
2018-Jun-19 19:01N 37°49' W 122°23'4 8.1
2018-Jun-19 18:31N 37°52' W 122°25'611.7
2018-Jun-19 17:59N 37°57' W 122°30'3 6.5
2018-Jun-19 17:30N 37°55' W 122°27'815.5
2018-Jun-19 17:00N 37°48' W 122°24'1017.7
2018-Jun-19 16:25N 37°57' W 122°30'1 1.9
2018-Jun-19 15:57N 37°56' W 122°29'1021.3
2018-Jun-19 15:30N 37°48' W 122°24'1018.9
2018-Jun-19 14:58N 37°56' W 122°30'4 9.1
2018-Jun-19 14:30N 37°53' W 122°26'510.2
2018-Jun-19 14:00N 37°49' W 122°24'918.8
2018-Jun-19 13:30N 37°57' W 122°30'0 0.0
2018-Jun-19 05:07N 37°57' W 122°30'1 8.7
2018-Jun-19 05:00N 37°56' W 122°29'1019.2
2018-Jun-19 04:30N 37°48' W 122°24'1017.3
2018-Jun-19 03:55N 37°57' W 122°30'1 2.0
2018-Jun-19 03:30N 37°56' W 122°29'1019.2
2018-Jun-19 03:00N 37°48' W 122°24'1020.2
2018-Jun-19 02:30N 37°57' W 122°30'0 0.6
2018-Jun-19 02:00N 37°57' W 122°30'1021.1
2018-Jun-19 01:30N 37°48' W 122°24'611.4
2018-Jun-19 01:00N 37°53' W 122°26'510.1
2018-Jun-19 00:30N 37°57' W 122°30'1020.8
2018-Jun-19 00:00N 37°48' W 122°24'4 8.8
2018-Jun-18 23:31N 37°52' W 122°25'612.8
2018-Jun-18 23:00N 37°57' W 122°30'1020.3
2018-Jun-18 22:29N 37°48' W 122°24'1019.2
2018-Jun-18 21:58N 37°57' W 122°30'0 0.6
2018-Jun-18 21:30N 37°57' W 122°30'0 0.0
2018-Jun-18 21:00N 37°57' W 122°30'1019.8
2018-Jun-18 20:30N 37°49' W 122°23'4 7.0
2018-Jun-18 20:00N 37°52' W 122°25'612.5
2018-Jun-18 19:30N 37°57' W 122°30'1019.7
2018-Jun-18 19:01N 37°49' W 122°23'3 6.9
2018-Jun-18 18:31N 37°52' W 122°25'612.5
2018-Jun-18 18:00N 37°57' W 122°30'612.3
2018-Jun-18 17:31N 37°53' W 122°25'5 9.7
2018-Jun-18 17:01N 37°48' W 122°24'1018.3
2018-Jun-18 16:29N 37°56' W 122°30'0 0.2
2018-Jun-18 16:00N 37°56' W 122°30'1019.7
2018-Jun-18 15:30N 37°48' W 122°24'1018.5
2018-Jun-18 14:57N 37°57' W 122°30'4 9.8
2018-Jun-18 14:30N 37°54' W 122°26'5 9.3
2018-Jun-18 14:01N 37°49' W 122°24'917.7
2018-Jun-18 13:30N 37°57' W 122°30'  
2018-Jun-16 01:01N 37°57' W 122°30'0 0.0
2018-Jun-16 01:00N 37°57' W 122°30'1020.9
2018-Jun-16 00:30N 37°48' W 122°24'1 1.2
2018-Jun-16 00:01N 37°48' W 122°23'1017.1
2018-Jun-15 23:26N 37°56' W 122°30'1023.4
2018-Jun-15 23:00N 37°48' W 122°24'1018.4
2018-Jun-15 22:28N 37°56' W 122°30'1 1.3
2018-Jun-15 21:54N 37°57' W 122°31'0 0.0
2018-Jun-15 01:36N 37°57' W 122°31'0 0.0
2018-Jun-15 01:30N 37°57' W 122°31'0 0.3
2018-Jun-15 01:00N 37°57' W 122°30'1021.1
2018-Jun-15 00:30N 37°48' W 122°24'1 1.2
2018-Jun-15 00:01N 37°48' W 122°23'1019.6
2018-Jun-14 23:29N 37°57' W 122°30'1021.8
2018-Jun-14 23:01N 37°48' W 122°24'510.8
2018-Jun-14 22:31N 37°53' W 122°25'611.0
2018-Jun-14 22:00N 37°57' W 122°31'  

Dump ship's entire track history